Time;durP1;ratioP1;P1;durP2;ratioP2;P2;SDS_P1;SDS_P2;PMS_P1;PMS_P2;Temp;Humidity;BMP_temperature;BMP_pressure;BME280_temperature;BME280_humidity;BME280_pressure;Samples;Min_cycle;Max_cycle;Signal;HPM_P1;HPM_P2
2023/04/08 00:09:19;;;;;;;6.27;3.97;;;5.70;99.90;;;;;;20633324;28;20026;-80
2023/04/08 00:19:20;;;;;;;;;;;5.60;99.90;;;;;;20645067;28;20050;-79
2023/04/08 00:29:20;;;;;;;5.83;3.73;;;5.30;99.90;;;;;;20712315;28;19981;-79
2023/04/08 00:39:21;;;;;;;;;;;5.20;99.90;;;;;;20713091;28;20066;-78
2023/04/08 00:49:22;;;;;;;4.67;3.00;;;4.80;99.90;;;;;;20655853;28;19910;-80
2023/04/08 00:59:23;;;;;;;6.72;4.05;;;4.60;99.90;;;;;;20728027;28;20098;-79
2023/04/08 01:09:26;;;;;;;;;;;4.40;99.90;;;;;;20730407;28;20034;-80
2023/04/08 01:19:34;;;;;;;4.70;3.17;;;4.10;99.90;;;;;;20729694;28;19913;-80
2023/04/08 01:29:36;;;;;;;6.00;3.58;;;4.20;99.90;;;;;;20729753;28;20085;-80
2023/04/08 01:39:40;;;;;;;6.25;3.83;;;4.10;99.90;;;;;;20711722;28;20034;-80
2023/04/08 01:49:42;;;;;;;8.02;4.15;;;4.00;99.90;;;;;;20711478;28;20060;-79
2023/04/08 01:59:47;;;;;;;6.07;3.72;;;4.10;99.90;;;;;;20726488;28;20081;-79
2023/04/08 02:09:48;;;;;;;5.22;3.50;;;4.20;99.90;;;;;;20709727;28;20038;-80
2023/04/08 02:20:04;;;;;;;4.80;2.75;;;4.30;99.90;;;;;;20734823;28;20045;-80
2023/04/08 02:30:07;;;;;;;6.72;3.97;;;4.30;99.90;;;;;;20744529;28;20038;-80
2023/04/08 02:40:28;;;;;;;5.40;3.65;;;4.10;99.90;;;;;;20672248;28;20285;-80
2023/04/08 02:50:30;;;;;;;8.05;4.47;;;3.90;99.90;;;;;;20688200;28;20504;-80
2023/04/08 03:00:31;;;;;;;6.47;4.18;;;3.80;99.90;;;;;;20646527;28;20026;-80
2023/04/08 03:10:31;;;;;;;7.15;3.67;;;3.80;99.90;;;;;;20600308;28;20031;-80
2023/04/08 03:20:32;;;;;;;6.65;4.10;;;3.90;99.90;;;;;;20621580;28;20026;-79
2023/04/08 03:30:33;;;;;;;7.65;4.03;;;3.90;99.90;;;;;;20699289;28;20041;-79
2023/04/08 03:40:34;;;;;;;9.80;4.60;;;4.00;99.90;;;;;;20718588;28;20034;-80
2023/04/08 03:50:35;;;;;;;6.72;4.00;;;3.90;99.90;;;;;;20731054;28;20034;-79
2023/04/08 04:00:36;;;;;;;6.88;3.75;;;3.80;99.90;;;;;;20734516;28;20045;-79
2023/04/08 04:10:36;;;;;;;6.97;4.05;;;3.60;99.90;;;;;;20731994;28;20447;-79
2023/04/08 04:20:41;;;;;;;4.60;3.17;;;3.50;99.90;;;;;;20689700;28;20034;-79
2023/04/08 04:30:42;;;;;;;9.32;3.67;;;3.30;99.90;;;;;;20721104;28;20484;-79
2023/04/08 04:40:43;;;;;;;6.53;3.30;;;3.10;99.90;;;;;;20731742;28;20039;-78
2023/04/08 04:50:44;;;;;;;8.52;3.40;;;3.10;99.90;;;;;;20729000;28;20030;-79
2023/04/08 05:00:45;;;;;;;5.65;3.22;;;3.10;99.90;;;;;;20736778;28;20093;-80
2023/04/08 05:10:46;;;;;;;8.77;3.92;;;3.20;99.90;;;;;;20714301;28;20161;-79
2023/04/08 05:20:49;;;;;;;11.27;4.30;;;3.30;99.90;;;;;;20729513;28;20038;-80
2023/04/08 05:30:51;;;;;;;7.13;3.78;;;3.50;99.90;;;;;;20727545;28;20038;-79
2023/04/08 05:40:52;;;;;;;7.65;4.32;;;3.70;99.90;;;;;;20685869;28;20031;-83
2023/04/08 05:50:52;;;;;;;9.38;4.55;;;3.90;99.90;;;;;;20674111;28;20046;-82
2023/04/08 06:00:54;;;;;;;11.13;6.40;;;4.20;99.90;;;;;;20700465;28;20490;-82
2023/04/08 06:10:55;;;;;;;8.52;5.40;;;4.30;99.90;;;;;;20682393;28;20042;-82
2023/04/08 06:20:55;;;;;;;;;;;4.50;99.90;;;;;;20688155;28;20375;-81
2023/04/08 06:30:57;;;;;;;7.47;4.50;;;4.60;99.90;;;;;;20613536;28;19929;-81
2023/04/08 06:41:05;;;;;;;7.90;4.90;;;5.00;99.90;;;;;;20616784;28;20034;-80
2023/04/08 06:51:06;;;;;;;6.72;4.57;;;5.20;99.90;;;;;;20669389;28;20041;-78
2023/04/08 07:01:07;;;;;;;10.20;5.28;;;5.50;99.90;;;;;;20729613;28;20043;-80
2023/04/08 07:11:08;;;;;;;9.40;4.97;;;5.80;99.90;;;;;;20689317;28;20030;-78
2023/04/08 07:21:09;;;;;;;9.27;5.33;;;6.30;99.90;;;;;;20738177;28;20313;-80
2023/04/08 07:31:14;;;;;;;;;;;6.40;99.90;;;;;;20727194;28;20278;-80
2023/04/08 07:41:15;;;;;;;8.05;5.38;;;6.60;99.90;;;;;;20722883;28;19913;-80
2023/04/08 07:51:16;;;;;;;9.73;5.25;;;6.60;99.90;;;;;;20731754;28;20026;-80
2023/04/08 08:01:21;;;;;;;7.87;4.97;;;7.00;99.90;;;;;;20726683;28;20074;-79
2023/04/08 08:11:22;;;;;;;10.90;4.80;;;7.50;99.90;;;;;;20725480;28;20614;-79
2023/04/08 08:21:25;;;;;;;9.18;4.40;;;7.80;99.90;;;;;;20704449;28;20465;-80
2023/04/08 08:31:26;;;;;;;6.78;3.80;;;7.90;99.90;;;;;;20702516;28;20149;-80
2023/04/08 08:41:31;;;;;;;5.87;3.63;;;8.20;99.90;;;;;;20713782;28;20042;-80
2023/04/08 08:51:33;;;;;;;7.47;4.10;;;8.50;99.90;;;;;;20694469;23;20046;-76
2023/04/08 09:01:42;;;;;;;8.18;3.90;;;8.30;99.90;;;;;;20669853;28;20057;-77
2023/04/08 09:11:46;;;;;;;5.68;3.38;;;9.00;99.90;;;;;;20673872;28;20464;-77
2023/04/08 09:22:04;;;;;;;5.95;3.45;;;9.50;99.90;;;;;;20672508;28;20030;-77
2023/04/08 09:32:05;;;;;;;6.03;3.58;;;10.70;99.90;;;;;;20661212;28;20106;-76
2023/04/08 09:42:11;;;;;;;6.57;3.90;;;10.40;99.90;;;;;;20668138;28;20031;-77
2023/04/08 09:52:32;;;;;;;6.80;3.85;;;10.00;99.90;;;;;;20668579;28;20146;-77
2023/04/08 10:02:42;;;;;;;10.40;4.05;;;10.30;99.90;;;;;;20658699;28;20085;-77
2023/04/08 10:12:43;;;;;;;6.53;3.78;;;10.80;99.90;;;;;;20649373;28;20034;-77
2023/04/08 10:22:48;;;;;;;7.03;3.90;;;10.70;99.90;;;;;;20670397;28;20030;-78
2023/04/08 10:32:48;;;;;;;6.32;3.50;;;10.80;99.90;;;;;;20670272;28;20031;-77
2023/04/08 10:42:58;;;;;;;5.77;3.50;;;11.00;99.90;;;;;;20676175;28;20038;-74
2023/04/08 10:53:00;;;;;;;4.90;3.13;;;11.00;99.90;;;;;;20689864;28;20143;-78
2023/04/08 11:03:05;;;;;;;5.82;2.65;;;11.10;99.90;;;;;;20670909;28;20042;-76
2023/04/08 11:13:11;;;;;;;3.88;2.28;;;12.20;99.90;;;;;;20713578;28;20480;-78
2023/04/08 11:23:16;;;;;;;9.32;6.45;;;12.10;99.90;;;;;;20678628;28;20046;-78
2023/04/08 11:33:16;;;;;;;4.55;2.75;;;11.50;99.90;;;;;;20660038;28;20034;-77
2023/04/08 11:43:17;;;;;;;3.17;2.17;;;11.40;99.90;;;;;;20682383;28;20555;-78
2023/04/08 11:53:19;;;;;;;3.87;2.53;;;12.10;99.90;;;;;;20668010;28;20501;-78
2023/04/08 12:03:20;;;;;;;5.45;2.95;;;12.80;99.90;;;;;;20693540;28;20045;-78
2023/04/08 12:13:21;;;;;;;3.07;2.13;;;13.10;99.90;;;;;;20692769;28;20023;-76
2023/04/08 12:23:22;;;;;;;3.47;2.23;;;12.40;99.90;;;;;;20680699;28;20069;-78
2023/04/08 12:33:22;;;;;;;2.93;1.67;;;12.10;99.90;;;;;;20680826;28;20041;-78
2023/04/08 12:43:23;;;;;;;2.53;1.67;;;12.50;99.90;;;;;;20686043;28;20031;-78
2023/04/08 12:53:24;;;;;;;2.80;2.20;;;12.90;99.90;;;;;;20683110;28;20034;-77
2023/04/08 13:03:27;;;;;;;3.43;2.20;;;12.40;99.90;;;;;;20694337;28;20034;-76
2023/04/08 13:13:27;;;;;;;3.65;2.08;;;12.30;99.90;;;;;;20659570;28;20451;-77
2023/04/08 13:23:28;;;;;;;2.63;1.60;;;12.50;99.90;;;;;;20679711;28;20030;-78
2023/04/08 13:33:30;;;;;;;2.60;1.50;;;12.30;99.90;;;;;;20671513;28;20051;-77
2023/04/08 13:43:31;;;;;;;2.90;1.90;;;12.30;99.90;;;;;;20669953;28;20023;-77
2023/04/08 13:53:32;;;;;;;2.97;1.60;;;12.60;99.90;;;;;;20671433;28;20034;-78
2023/04/08 14:03:32;;;;;;;2.37;1.30;;;12.50;99.90;;;;;;20666942;28;20026;-77
2023/04/08 14:13:33;;;;;;;2.50;1.50;;;12.30;99.90;;;;;;20676439;28;20026;-76
2023/04/08 14:23:34;;;;;;;3.00;1.77;;;12.50;99.90;;;;;;20684644;28;20397;-77
2023/04/08 14:33:35;;;;;;;5.20;1.63;;;12.20;99.90;;;;;;20686050;28;20030;-78
2023/04/08 14:43:36;;;;;;;3.93;1.70;;;12.10;99.90;;;;;;20688541;28;20527;-77
2023/04/08 14:53:37;;;;;;;3.13;1.80;;;11.20;99.90;;;;;;20736590;23;20510;-78
2023/04/08 15:03:37;;;;;;;5.13;1.73;;;10.80;99.90;;;;;;20850759;28;20040;-78
2023/04/08 15:13:38;;;;;;;6.77;2.40;;;10.20;99.90;;;;;;20840125;28;20052;-78
2023/04/08 15:23:40;;;;;;;3.30;1.77;;;10.20;99.90;;;;;;20823317;28;20068;-78
2023/04/08 15:33:41;;;;;;;2.75;1.73;;;10.40;99.90;;;;;;20826261;28;20115;-77
2023/04/08 15:43:43;;;;;;;2.37;1.80;;;10.00;99.90;;;;;;20833133;28;20094;-78
2023/04/08 15:53:43;;;;;;;3.80;1.93;;;10.10;99.90;;;;;;20822368;28;20418;-78
2023/04/08 16:03:45;;;;;;;4.03;2.77;;;9.60;99.90;;;;;;20828530;28;20510;-77
2023/04/08 16:13:46;;;;;;;;;;;9.50;99.90;;;;;;20859293;28;20025;-78
2023/04/08 16:23:47;;;;;;;3.63;2.20;;;9.80;99.90;;;;;;20827962;28;19996;-78
2023/04/08 16:33:47;;;;;;;5.00;1.77;;;10.00;99.90;;;;;;20833013;28;20108;-77
2023/04/08 16:43:48;;;;;;;3.97;2.77;;;9.80;99.90;;;;;;20829389;28;20148;-78
2023/04/08 16:53:49;;;;;;;3.47;2.47;;;10.00;99.90;;;;;;20868592;28;20037;-77
2023/04/08 17:03:50;;;;;;;3.97;2.57;;;10.20;99.90;;;;;;20819233;28;20068;-77
2023/04/08 17:13:51;;;;;;;9.35;4.78;;;10.20;99.90;;;;;;20824629;28;20064;-77
2023/04/08 17:23:53;;;;;;;8.67;3.90;;;10.30;99.90;;;;;;20823895;28;20372;-78
2023/04/08 17:33:53;;;;;;;5.30;4.20;;;9.90;99.90;;;;;;20824906;28;20431;-77
2023/04/08 17:43:54;;;;;;;5.77;3.90;;;9.70;99.90;;;;;;20824744;28;20091;-77
2023/04/08 17:53:55;;;;;;;5.77;3.20;;;9.70;99.90;;;;;;20864625;28;20037;-76
2023/04/08 18:03:56;;;;;;;5.60;3.60;;;9.70;99.90;;;;;;20851132;28;20071;-76
2023/04/08 18:13:56;;;;;;;9.47;4.07;;;9.50;99.90;;;;;;20851346;28;20036;-77
2023/04/08 18:23:57;;;;;;;5.10;3.73;;;9.40;99.90;;;;;;20846721;28;20028;-77
2023/04/08 18:33:58;;;;;;;9.23;4.63;;;9.00;99.90;;;;;;20843920;28;20029;-76
2023/04/08 18:44:01;;;;;;;6.70;4.27;;;9.00;99.90;;;;;;20849839;28;20059;-78
2023/04/08 18:54:02;;;;;;;10.10;4.97;;;9.00;99.90;;;;;;20849302;28;20034;-78
2023/04/08 19:04:03;;;;;;;12.07;6.07;;;8.90;99.90;;;;;;20858825;28;20112;-78
2023/04/08 19:14:04;;;;;;;8.23;5.17;;;8.80;99.90;;;;;;20892583;28;20045;-76
2023/04/08 19:24:05;;;;;;;8.13;5.23;;;8.70;99.90;;;;;;20849019;28;20037;-76
2023/04/08 19:34:05;;;;;;;24.03;10.47;;;8.70;99.90;;;;;;20839548;28;20347;-77
2023/04/08 19:44:06;;;;;;;4.40;2.77;;;8.80;99.90;;;;;;20838080;28;20096;-77
2023/04/08 19:54:07;;;;;;;4.50;3.13;;;8.50;99.90;;;;;;20836893;28;20075;-77
2023/04/08 20:04:08;;;;;;;5.07;3.57;;;8.50;99.90;;;;;;20838066;28;20472;-76
2023/04/08 20:14:09;;;;;;;8.27;4.47;;;8.40;99.90;;;;;;20835221;28;20291;-77
2023/04/08 20:24:10;;;;;;;10.83;6.80;;;8.30;99.90;;;;;;20838144;28;20033;-77
2023/04/08 20:34:11;;;;;;;17.55;10.23;;;8.40;99.90;;;;;;20836075;28;20526;-77
2023/04/08 20:44:12;;;;;;;21.33;12.18;;;8.50;99.90;;;;;;20834730;28;20029;-77
2023/04/08 20:54:13;;;;;;;19.93;12.23;;;8.50;99.90;;;;;;20834185;28;20040;-77
2023/04/08 21:04:15;;;;;;;19.80;11.25;;;8.40;99.90;;;;;;20831428;28;20037;-77
2023/04/08 21:14:16;;;;;;;22.27;12.48;;;8.40;99.90;;;;;;20833368;28;20079;-76
2023/04/08 21:24:16;;;;;;;18.77;12.23;;;8.30;99.90;;;;;;20829440;28;20037;-77
2023/04/08 21:34:17;;;;;;;21.60;13.63;;;8.20;99.90;;;;;;20842362;28;20064;-77
2023/04/08 21:44:18;;;;;;;19.10;11.50;;;8.10;99.90;;;;;;20846999;28;20117;-78
2023/04/08 21:54:19;;;;;;;23.70;13.53;;;7.90;99.90;;;;;;20853927;28;20048;-78
2023/04/08 22:04:20;;;;;;;21.30;12.90;;;7.60;99.90;;;;;;20848443;28;20025;-77
2023/04/08 22:14:21;;;;;;;21.83;13.68;;;7.20;99.90;;;;;;20831275;28;20033;-77
2023/04/08 22:24:22;;;;;;;21.33;13.43;;;7.10;99.90;;;;;;20861571;28;20040;-78
2023/04/08 22:34:22;;;;;;;24.37;14.00;;;7.00;99.90;;;;;;20830870;28;20034;-78
2023/04/08 22:44:23;;;;;;;22.60;12.37;;;6.90;99.90;;;;;;20862658;28;20320;-77
2023/04/08 22:54:24;;;;;;;25.77;14.13;;;6.60;99.90;;;;;;20857971;28;20064;-78
2023/04/08 23:04:25;;;;;;;23.23;13.75;;;6.20;99.90;;;;;;20845737;28;20692;-76
2023/04/08 23:14:26;;;;;;;24.37;13.63;;;6.10;99.90;;;;;;20836557;28;20029;-76
2023/04/08 23:24:26;;;;;;;26.48;15.57;;;6.00;99.90;;;;;;20836121;28;20299;-76
2023/04/08 23:34:27;;;;;;;;;;;5.80;99.90;;;;;;20835080;28;20383;-76
2023/04/08 23:44:28;;;;;;;26.67;15.63;;;5.50;99.90;;;;;;20832564;28;19913;-76
2023/04/08 23:54:31;;;;;;;33.28;16.50;;;5.40;99.90;;;;;;20831336;28;20033;-76
